sensor_id;sensor_type;location;lat;lon;timestamp;pressure;altitude;pressure_sealevel;temperature;humidity
38197;BME280;26543;51.976;4.616;2023-04-04T00:01:33;52938.75;;;-140.72;100.00
38197;BME280;26543;51.976;4.616;2023-04-04T00:03:59;52934.69;;;-140.72;100.00
38197;BME280;26543;51.976;4.616;2023-04-04T00:06:24;52946.88;;;-140.72;100.00
38197;BME280;26543;51.976;4.616;2023-04-04T00:08:49;52973.25;;;-140.72;100.00
38197;BME280;26543;51.976;4.616;2023-04-04T00:11:14;52940.78;;;-140.72;100.00
38197;BME280;26543;51.976;4.616;2023-04-04T00:13:40;52987.47;;;-140.72;100.00
38197;BME280;26543;51.976;4.616;2023-04-04T00:16:05;52930.66;;;-140.72;100.00
38197;BME280;26543;51.976;4.616;2023-04-04T00:18:30;52959.06;;;-140.72;100.00
38197;BME280;26543;51.976;4.616;2023-04-04T00:20:56;52959.06;;;-140.72;100.00
38197;BME280;26543;51.976;4.616;2023-04-04T00:23:21;52989.50;;;-140.72;100.00
38197;BME280;26543;51.976;4.616;2023-04-04T00:25:50;52940.78;;;-140.72;100.00
38197;BME280;26543;51.976;4.616;2023-04-04T00:28:16;52967.16;;;-140.72;100.00
38197;BME280;26543;51.976;4.616;2023-04-04T00:30:42;52983.41;;;-140.72;100.00
38197;BME280;26543;51.976;4.616;2023-04-04T00:33:07;52957.03;;;-140.72;100.00
38197;BME280;26543;51.976;4.616;2023-04-04T00:35:35;52989.50;;;-140.72;100.00
38197;BME280;26543;51.976;4.616;2023-04-04T00:38:01;53003.69;;;-140.72;100.00
38197;BME280;26543;51.976;4.616;2023-04-04T00:40:26;52987.47;;;-140.72;100.00
38197;BME280;26543;51.976;4.616;2023-04-04T00:42:52;52969.19;;;-140.72;100.00
38197;BME280;26543;51.976;4.616;2023-04-04T00:45:17;52946.88;;;-140.72;100.00
38197;BME280;26543;51.976;4.616;2023-04-04T00:47:42;53007.75;;;-140.72;100.00
38197;BME280;26543;51.976;4.616;2023-04-04T00:50:08;52955.00;;;-140.72;100.00
38197;BME280;26543;51.976;4.616;2023-04-04T00:52:33;52993.56;;;-140.72;100.00
38197;BME280;26543;51.976;4.616;2023-04-04T00:54:59;52985.44;;;-140.72;100.00
38197;BME280;26543;51.976;4.616;2023-04-04T00:57:24;52950.94;;;-140.72;100.00
38197;BME280;26543;51.976;4.616;2023-04-04T00:59:51;52981.38;;;-140.72;100.00
38197;BME280;26543;51.976;4.616;2023-04-04T01:02:16;52971.22;;;-140.72;100.00
38197;BME280;26543;51.976;4.616;2023-04-04T01:04:41;52979.34;;;-140.72;100.00
38197;BME280;26543;51.976;4.616;2023-04-04T01:07:18;52971.22;;;-140.72;100.00
38197;BME280;26543;51.976;4.616;2023-04-04T01:09:43;52989.50;;;-140.72;100.00
38197;BME280;26543;51.976;4.616;2023-04-04T01:12:09;52991.53;;;-140.72;100.00
38197;BME280;26543;51.976;4.616;2023-04-04T01:14:35;52987.47;;;-140.72;100.00
38197;BME280;26543;51.976;4.616;2023-04-04T01:17:00;52987.47;;;-140.72;100.00
38197;BME280;26543;51.976;4.616;2023-04-04T01:19:37;52987.47;;;-140.72;100.00
38197;BME280;26543;51.976;4.616;2023-04-04T01:22:07;52991.53;;;-140.72;100.00
38197;BME280;26543;51.976;4.616;2023-04-04T01:24:33;53003.69;;;-140.72;100.00
38197;BME280;26543;51.976;4.616;2023-04-04T01:26:58;52983.41;;;-140.72;100.00
38197;BME280;26543;51.976;4.616;2023-04-04T01:29:24;52979.34;;;-140.72;100.00
38197;BME280;26543;51.976;4.616;2023-04-04T01:31:57;52991.53;;;-140.72;100.00
38197;BME280;26543;51.976;4.616;2023-04-04T01:36:56;52975.28;;;-140.72;100.00
38197;BME280;26543;51.976;4.616;2023-04-04T01:39:26;53028.06;;;-140.72;100.00
38197;BME280;26543;51.976;4.616;2023-04-04T01:41:55;52965.16;;;-140.72;100.00
38197;BME280;26543;51.976;4.616;2023-04-04T01:44:21;53003.69;;;-140.72;100.00
38197;BME280;26543;51.976;4.616;2023-04-04T01:46:56;52981.38;;;-140.72;100.00
38197;BME280;26543;51.976;4.616;2023-04-04T01:49:22;52991.53;;;-140.72;100.00
38197;BME280;26543;51.976;4.616;2023-04-04T01:51:47;53007.75;;;-140.72;100.00
38197;BME280;26543;51.976;4.616;2023-04-04T01:54:13;53015.88;;;-140.72;100.00
38197;BME280;26543;51.976;4.616;2023-04-04T01:56:39;53028.06;;;-140.72;100.00
38197;BME280;26543;51.976;4.616;2023-04-04T01:59:04;53017.91;;;-140.72;100.00
38197;BME280;26543;51.976;4.616;2023-04-04T02:01:29;52997.63;;;-140.72;100.00
38197;BME280;26543;51.976;4.616;2023-04-04T02:03:55;53011.81;;;-140.72;100.00
38197;BME280;26543;51.976;4.616;2023-04-04T02:06:20;52969.19;;;-140.72;100.00
38197;BME280;26543;51.976;4.616;2023-04-04T02:08:46;52995.59;;;-140.72;100.00
38197;BME280;26543;51.976;4.616;2023-04-04T02:11:12;52971.22;;;-140.72;100.00
38197;BME280;26543;51.976;4.616;2023-04-04T02:13:37;53009.78;;;-140.72;100.00
38197;BME280;26543;51.976;4.616;2023-04-04T02:16:05;52969.19;;;-140.72;100.00
38197;BME280;26543;51.976;4.616;2023-04-04T02:18:30;52983.41;;;-140.72;100.00
38197;BME280;26543;51.976;4.616;2023-04-04T02:20:55;53015.88;;;-140.72;100.00
38197;BME280;26543;51.976;4.616;2023-04-04T02:23:23;53042.25;;;-140.72;100.00
38197;BME280;26543;51.976;4.616;2023-04-04T02:25:49;53005.72;;;-140.72;100.00
38197;BME280;26543;51.976;4.616;2023-04-04T02:28:15;52983.41;;;-140.72;100.00
38197;BME280;26543;51.976;4.616;2023-04-04T02:30:40;53007.75;;;-140.72;100.00
38197;BME280;26543;51.976;4.616;2023-04-04T02:33:05;52999.66;;;-140.72;100.00
38197;BME280;26543;51.976;4.616;2023-04-04T02:35:31;53003.69;;;-140.72;100.00
38197;BME280;26543;51.976;4.616;2023-04-04T02:38:01;52975.28;;;-140.72;100.00
38197;BME280;26543;51.976;4.616;2023-04-04T02:40:26;53007.75;;;-140.72;100.00
38197;BME280;26543;51.976;4.616;2023-04-04T02:43:05;52997.63;;;-140.72;100.00
38197;BME280;26543;51.976;4.616;2023-04-04T02:45:30;52993.56;;;-140.72;100.00
38197;BME280;26543;51.976;4.616;2023-04-04T02:47:55;52973.25;;;-140.72;100.00
38197;BME280;26543;51.976;4.616;2023-04-04T02:50:20;53032.13;;;-140.72;100.00
38197;BME280;26543;51.976;4.616;2023-04-04T02:52:46;52979.34;;;-140.72;100.00
38197;BME280;26543;51.976;4.616;2023-04-04T02:55:11;53030.09;;;-140.72;100.00
38197;BME280;26543;51.976;4.616;2023-04-04T02:57:36;53001.66;;;-140.72;100.00
38197;BME280;26543;51.976;4.616;2023-04-04T03:00:02;53015.88;;;-140.72;100.00
38197;BME280;26543;51.976;4.616;2023-04-04T03:02:28;53019.94;;;-140.72;100.00
38197;BME280;26543;51.976;4.616;2023-04-04T03:04:53;53001.66;;;-140.72;100.00
38197;BME280;26543;51.976;4.616;2023-04-04T03:07:19;53015.88;;;-140.72;100.00
38197;BME280;26543;51.976;4.616;2023-04-04T03:09:46;52989.50;;;-140.72;100.00
38197;BME280;26543;51.976;4.616;2023-04-04T03:12:11;53019.94;;;-140.72;100.00
38197;BME280;26543;51.976;4.616;2023-04-04T03:14:36;52987.47;;;-140.72;100.00
38197;BME280;26543;51.976;4.616;2023-04-04T03:17:02;53005.72;;;-140.72;100.00
38197;BME280;26543;51.976;4.616;2023-04-04T03:19:27;53032.13;;;-140.72;100.00
38197;BME280;26543;51.976;4.616;2023-04-04T03:21:53;53036.16;;;-140.72;100.00
38197;BME280;26543;51.976;4.616;2023-04-04T03:24:18;53009.78;;;-140.72;100.00
38197;BME280;26543;51.976;4.616;2023-04-04T03:26:43;53003.69;;;-140.72;100.00
38197;BME280;26543;51.976;4.616;2023-04-04T03:29:08;52987.47;;;-140.72;100.00
38197;BME280;26543;51.976;4.616;2023-04-04T03:31:33;53024.00;;;-140.72;100.00
38197;BME280;26543;51.976;4.616;2023-04-04T03:33:59;53011.81;;;-140.72;100.00
38197;BME280;26543;51.976;4.616;2023-04-04T03:36:25;53038.19;;;-140.72;100.00
38197;BME280;26543;51.976;4.616;2023-04-04T03:38:50;53040.22;;;-140.72;100.00
38197;BME280;26543;51.976;4.616;2023-04-04T03:41:15;53024.00;;;-140.72;100.00
38197;BME280;26543;51.976;4.616;2023-04-04T03:43:40;53001.66;;;-140.72;100.00
38197;BME280;26543;51.976;4.616;2023-04-04T03:46:06;53040.22;;;-140.72;100.00
38197;BME280;26543;51.976;4.616;2023-04-04T03:48:31;52985.44;;;-140.72;100.00
38197;BME280;26543;51.976;4.616;2023-04-04T03:50:57;53044.28;;;-140.72;100.00
38197;BME280;26543;51.976;4.616;2023-04-04T03:53:26;53036.16;;;-140.72;100.00
38197;BME280;26543;51.976;4.616;2023-04-04T03:55:52;53026.03;;;-140.72;100.00
38197;BME280;26543;51.976;4.616;2023-04-04T03:58:19;52995.59;;;-140.72;100.00
38197;BME280;26543;51.976;4.616;2023-04-04T04:00:44;53024.00;;;-140.72;100.00
38197;BME280;26543;51.976;4.616;2023-04-04T04:03:09;53028.06;;;-140.72;100.00
38197;BME280;26543;51.976;4.616;2023-04-04T04:05:35;52989.50;;;-140.72;100.00
38197;BME280;26543;51.976;4.616;2023-04-04T04:08:00;53019.94;;;-140.72;100.00
38197;BME280;26543;51.976;4.616;2023-04-04T04:10:25;53007.75;;;-140.72;100.00
38197;BME280;26543;51.976;4.616;2023-04-04T04:12:50;53046.31;;;-140.72;100.00
38197;BME280;26543;51.976;4.616;2023-04-04T04:15:16;52993.56;;;-140.72;100.00
38197;BME280;26543;51.976;4.616;2023-04-04T04:17:41;53038.19;;;-140.72;100.00
38197;BME280;26543;51.976;4.616;2023-04-04T04:20:07;53015.88;;;-140.72;100.00
38197;BME280;26543;51.976;4.616;2023-04-04T04:22:32;53011.81;;;-140.72;100.00
38197;BME280;26543;51.976;4.616;2023-04-04T04:24:58;53011.81;;;-140.72;100.00
38197;BME280;26543;51.976;4.616;2023-04-04T04:27:23;53007.75;;;-140.72;100.00
38197;BME280;26543;51.976;4.616;2023-04-04T04:29:48;53015.88;;;-140.72;100.00
38197;BME280;26543;51.976;4.616;2023-04-04T04:32:17;53032.13;;;-140.72;100.00
38197;BME280;26543;51.976;4.616;2023-04-04T04:34:42;53024.00;;;-140.72;100.00
38197;BME280;26543;51.976;4.616;2023-04-04T04:37:08;53028.06;;;-140.72;100.00
38197;BME280;26543;51.976;4.616;2023-04-04T04:39:33;53052.41;;;-140.72;100.00
38197;BME280;26543;51.976;4.616;2023-04-04T04:41:59;53026.03;;;-140.72;100.00
38197;BME280;26543;51.976;4.616;2023-04-04T04:44:24;53009.78;;;-140.72;100.00
38197;BME280;26543;51.976;4.616;2023-04-04T04:46:50;52989.50;;;-140.72;100.00
38197;BME280;26543;51.976;4.616;2023-04-04T04:49:15;53072.69;;;-140.72;100.00
38197;BME280;26543;51.976;4.616;2023-04-04T04:51:40;53040.22;;;-140.72;100.00
38197;BME280;26543;51.976;4.616;2023-04-04T04:54:06;53046.31;;;-140.72;100.00
38197;BME280;26543;51.976;4.616;2023-04-04T04:56:32;53017.91;;;-140.72;100.00
38197;BME280;26543;51.976;4.616;2023-04-04T04:58:57;53026.03;;;-140.72;100.00
38197;BME280;26543;51.976;4.616;2023-04-04T05:01:22;53042.25;;;-140.72;100.00
38197;BME280;26543;51.976;4.616;2023-04-04T05:03:47;53052.41;;;-140.72;100.00
38197;BME280;26543;51.976;4.616;2023-04-04T05:06:13;53064.59;;;-140.72;100.00
38197;BME280;26543;51.976;4.616;2023-04-04T05:08:38;53011.81;;;-140.72;100.00
38197;BME280;26543;51.976;4.616;2023-04-04T05:11:03;53011.81;;;-140.72;100.00
38197;BME280;26543;51.976;4.616;2023-04-04T05:13:28;53036.16;;;-140.72;100.00
38197;BME280;26543;51.976;4.616;2023-04-04T05:15:54;53058.50;;;-140.72;100.00
38197;BME280;26543;51.976;4.616;2023-04-04T05:18:19;53032.13;;;-140.72;100.00
38197;BME280;26543;51.976;4.616;2023-04-04T05:20:49;53040.22;;;-140.72;100.00
38197;BME280;26543;51.976;4.616;2023-04-04T05:23:14;53048.34;;;-140.72;100.00
38197;BME280;26543;51.976;4.616;2023-04-04T05:25:40;53086.91;;;-140.72;100.00
38197;BME280;26543;51.976;4.616;2023-04-04T05:28:15;53040.22;;;-140.72;100.00
38197;BME280;26543;51.976;4.616;2023-04-04T05:30:40;53064.59;;;-140.72;100.00
38197;BME280;26543;51.976;4.616;2023-04-04T05:33:09;53040.22;;;-140.72;100.00
38197;BME280;26543;51.976;4.616;2023-04-04T05:35:35;53068.66;;;-140.72;100.00
38197;BME280;26543;51.976;4.616;2023-04-04T05:38:00;53088.94;;;-140.72;100.00
38197;BME280;26543;51.976;4.616;2023-04-04T05:40:25;53080.81;;;-140.72;100.00
38197;BME280;26543;51.976;4.616;2023-04-04T05:42:58;53021.97;;;-140.72;100.00
38197;BME280;26543;51.976;4.616;2023-04-04T05:45:26;53046.31;;;-140.72;100.00
38197;BME280;26543;51.976;4.616;2023-04-04T05:47:57;53048.34;;;-140.72;100.00
38197;BME280;26543;51.976;4.616;2023-04-04T05:53:25;53058.50;;;-140.72;100.00
38197;BME280;26543;51.976;4.616;2023-04-04T05:55:54;53011.81;;;-140.72;100.00
38197;BME280;26543;51.976;4.616;2023-04-04T05:58:19;53034.16;;;-140.72;100.00
38197;BME280;26543;51.976;4.616;2023-04-04T06:00:44;53028.06;;;-140.72;100.00
38197;BME280;26543;51.976;4.616;2023-04-04T06:03:09;53070.69;;;-140.72;100.00
38197;BME280;26543;51.976;4.616;2023-04-04T06:05:35;53015.88;;;-140.72;100.00
38197;BME280;26543;51.976;4.616;2023-04-04T06:08:00;53044.28;;;-140.72;100.00
38197;BME280;26543;51.976;4.616;2023-04-04T06:10:25;53068.66;;;-140.72;100.00
38197;BME280;26543;51.976;4.616;2023-04-04T06:12:51;53036.16;;;-140.72;100.00
38197;BME280;26543;51.976;4.616;2023-04-04T06:15:16;53024.00;;;-140.72;100.00
38197;BME280;26543;51.976;4.616;2023-04-04T06:17:41;53019.94;;;-140.72;100.00
38197;BME280;26543;51.976;4.616;2023-04-04T06:20:07;53024.00;;;-140.72;100.00
38197;BME280;26543;51.976;4.616;2023-04-04T06:22:32;52989.50;;;-140.72;100.00
38197;BME280;26543;51.976;4.616;2023-04-04T06:24:58;53060.53;;;-140.72;100.00
38197;BME280;26543;51.976;4.616;2023-04-04T06:27:24;52999.66;;;-140.72;100.00
38197;BME280;26543;51.976;4.616;2023-04-04T06:29:49;52993.56;;;-140.72;100.00
38197;BME280;26543;51.976;4.616;2023-04-04T06:32:15;52993.56;;;-140.72;100.00
38197;BME280;26543;51.976;4.616;2023-04-04T06:34:40;52999.66;;;-140.72;100.00
38197;BME280;26543;51.976;4.616;2023-04-04T06:37:05;53028.06;;;-140.72;100.00
38197;BME280;26543;51.976;4.616;2023-04-04T06:39:30;52997.63;;;-140.72;100.00
38197;BME280;26543;51.976;4.616;2023-04-04T06:41:58;53009.78;;;-140.72;100.00
38197;BME280;26543;51.976;4.616;2023-04-04T06:44:23;52997.63;;;-140.72;100.00
38197;BME280;26543;51.976;4.616;2023-04-04T06:46:48;52971.22;;;-140.72;100.00
38197;BME280;26543;51.976;4.616;2023-04-04T06:49:15;52981.38;;;-140.72;100.00
38197;BME280;26543;51.976;4.616;2023-04-04T06:51:40;53001.66;;;-140.72;100.00
38197;BME280;26543;51.976;4.616;2023-04-04T06:54:05;52977.31;;;-140.72;100.00
38197;BME280;26543;51.976;4.616;2023-04-04T06:56:31;52961.09;;;-140.72;100.00
38197;BME280;26543;51.976;4.616;2023-04-04T06:58:56;52995.59;;;-140.72;100.00
38197;BME280;26543;51.976;4.616;2023-04-04T07:01:21;52979.34;;;-140.72;100.00
38197;BME280;26543;51.976;4.616;2023-04-04T07:03:46;53013.84;;;-140.72;100.00
38197;BME280;26543;51.976;4.616;2023-04-04T07:06:13;52979.34;;;-140.72;100.00
38197;BME280;26543;51.976;4.616;2023-04-04T07:08:38;52952.97;;;-140.72;100.00
38197;BME280;26543;51.976;4.616;2023-04-04T07:11:04;52987.47;;;-140.72;100.00
38197;BME280;26543;51.976;4.616;2023-04-04T07:13:30;52977.31;;;-140.72;100.00
38197;BME280;26543;51.976;4.616;2023-04-04T07:15:55;52955.00;;;-140.72;100.00
38197;BME280;26543;51.976;4.616;2023-04-04T07:18:21;52977.31;;;-140.72;100.00
38197;BME280;26543;51.976;4.616;2023-04-04T07:20:46;52955.00;;;-140.72;100.00
38197;BME280;26543;51.976;4.616;2023-04-04T07:23:12;52965.16;;;-140.72;100.00
38197;BME280;26543;51.976;4.616;2023-04-04T07:25:39;52940.78;;;-140.72;100.00
38197;BME280;26543;51.976;4.616;2023-04-04T07:28:04;52934.69;;;-140.72;100.00
38197;BME280;26543;51.976;4.616;2023-04-04T07:30:30;52930.66;;;-140.72;100.00
38197;BME280;26543;51.976;4.616;2023-04-04T07:33:00;52971.22;;;-140.72;100.00
38197;BME280;26543;51.976;4.616;2023-04-04T07:35:25;52955.00;;;-140.72;100.00
38197;BME280;26543;51.976;4.616;2023-04-04T07:37:51;52948.91;;;-140.72;100.00
38197;BME280;26543;51.976;4.616;2023-04-04T07:40:16;52918.47;;;-140.72;100.00
38197;BME280;26543;51.976;4.616;2023-04-04T07:42:44;52920.50;;;-140.72;100.00
38197;BME280;26543;51.976;4.616;2023-04-04T07:45:10;52936.72;;;-140.72;100.00
38197;BME280;26543;51.976;4.616;2023-04-04T07:47:35;52894.13;;;-140.72;100.00
38197;BME280;26543;51.976;4.616;2023-04-04T07:50:01;52914.41;;;-140.72;100.00
38197;BME280;26543;51.976;4.616;2023-04-04T07:52:27;52922.53;;;-140.72;100.00
38197;BME280;26543;51.976;4.616;2023-04-04T07:54:53;52944.84;;;-140.72;100.00
38197;BME280;26543;51.976;4.616;2023-04-04T07:57:18;52938.75;;;-140.72;100.00
38197;BME280;26543;51.976;4.616;2023-04-04T07:59:43;52959.06;;;-140.72;100.00
38197;BME280;26543;51.976;4.616;2023-04-04T08:02:09;52886.00;;;-140.72;100.00
38197;BME280;26543;51.976;4.616;2023-04-04T08:04:34;52914.41;;;-140.72;100.00
38197;BME280;26543;51.976;4.616;2023-04-04T08:07:00;52940.78;;;-140.72;100.00
38197;BME280;26543;51.976;4.616;2023-04-04T08:09:25;52928.63;;;-140.72;100.00
38197;BME280;26543;51.976;4.616;2023-04-04T08:11:55;52906.28;;;-140.72;100.00
38197;BME280;26543;51.976;4.616;2023-04-04T08:14:20;52926.59;;;-140.72;88.27
38197;BME280;26543;51.976;4.616;2023-04-04T08:16:45;52938.75;;;-140.72;68.00
38197;BME280;26543;51.976;4.616;2023-04-04T08:19:11;52916.44;;;-140.72;53.57
38197;BME280;26543;51.976;4.616;2023-04-04T08:21:36;52920.50;;;-140.72;39.24
38197;BME280;26543;51.976;4.616;2023-04-04T08:24:02;52914.41;;;-140.72;13.02
38197;BME280;26543;51.976;4.616;2023-04-04T08:26:27;52883.97;;;-140.72;0.00
38197;BME280;26543;51.976;4.616;2023-04-04T08:28:53;52930.66;;;-140.72;0.00
38197;BME280;26543;51.976;4.616;2023-04-04T08:31:18;52894.13;;;-140.72;0.00
38197;BME280;26543;51.976;4.616;2023-04-04T08:33:43;52877.88;;;-140.72;0.00
38197;BME280;26543;51.976;4.616;2023-04-04T08:36:09;52900.19;;;-140.72;0.00
38197;BME280;26543;51.976;4.616;2023-04-04T08:38:34;52875.84;;;-140.72;0.00
38197;BME280;26543;51.976;4.616;2023-04-04T08:40:59;52863.66;;;-140.72;0.00
38197;BME280;26543;51.976;4.616;2023-04-04T08:43:25;52892.09;;;-140.72;0.00
38197;BME280;26543;51.976;4.616;2023-04-04T08:45:51;52865.69;;;-140.72;0.00
38197;BME280;26543;51.976;4.616;2023-04-04T08:48:17;52837.28;;;-140.72;0.00
38197;BME280;26543;51.976;4.616;2023-04-04T08:50:43;52790.63;;;-140.72;0.00
38197;BME280;26543;51.976;4.616;2023-04-04T08:53:09;52808.88;;;-140.72;0.00
38197;BME280;26543;51.976;4.616;2023-04-04T08:55:34;52794.69;;;-140.72;0.00
38197;BME280;26543;51.976;4.616;2023-04-04T08:58:00;52833.22;;;-140.72;0.00
38197;BME280;26543;51.976;4.616;2023-04-04T09:00:25;52792.66;;;-140.72;0.00
38197;BME280;26543;51.976;4.616;2023-04-04T09:05:21;52752.06;;;-140.72;0.00
38197;BME280;26543;51.976;4.616;2023-04-04T09:07:46;52756.13;;;-140.72;0.00
38197;BME280;26543;51.976;4.616;2023-04-04T09:10:12;52733.78;;;-140.72;0.00
38197;BME280;26543;51.976;4.616;2023-04-04T09:12:38;52750.03;;;-140.72;0.00
38197;BME280;26543;51.976;4.616;2023-04-04T09:15:04;52733.78;;;-140.72;0.00
38197;BME280;26543;51.976;4.616;2023-04-04T09:17:30;52670.88;;;-140.72;0.00
38197;BME280;26543;51.976;4.616;2023-04-04T09:19:55;52664.81;;;-140.72;0.00
38197;BME280;26543;51.976;4.616;2023-04-04T09:22:20;52642.47;;;-140.72;0.00
38197;BME280;26543;51.976;4.616;2023-04-04T09:24:46;52622.19;;;-140.72;0.00
38197;BME280;26543;51.976;4.616;2023-04-04T09:27:12;52654.66;;;-140.72;0.00
38197;BME280;26543;51.976;4.616;2023-04-04T09:29:40;52628.28;;;-140.72;0.00
38197;BME280;26543;51.976;4.616;2023-04-04T09:32:09;52605.94;;;-140.72;0.00
38197;BME280;26543;51.976;4.616;2023-04-04T09:34:35;52634.38;;;-140.72;0.00
38197;BME280;26543;51.976;4.616;2023-04-04T09:37:02;52636.38;;;-140.72;0.00
38197;BME280;26543;51.976;4.616;2023-04-04T09:39:28;52616.09;;;-140.72;0.00
38197;BME280;26543;51.976;4.616;2023-04-04T09:41:53;52622.19;;;-140.72;0.00
38197;BME280;26543;51.976;4.616;2023-04-04T09:44:18;52599.88;;;-140.72;0.00
38197;BME280;26543;51.976;4.616;2023-04-04T09:46:44;52595.81;;;-140.72;0.00
38197;BME280;26543;51.976;4.616;2023-04-04T09:49:09;52610.00;;;-140.72;0.00
38197;BME280;26543;51.976;4.616;2023-04-04T09:51:35;52605.94;;;-140.72;0.00
38197;BME280;26543;51.976;4.616;2023-04-04T09:54:01;52532.91;;;-140.72;0.00
38197;BME280;26543;51.976;4.616;2023-04-04T09:56:26;52581.59;;;-140.72;0.00
38197;BME280;26543;51.976;4.616;2023-04-04T09:58:52;52528.84;;;-140.72;0.00
38197;BME280;26543;51.976;4.616;2023-04-04T10:01:18;52504.50;;;-140.72;0.00
38197;BME280;26543;51.976;4.616;2023-04-04T10:03:47;52536.97;;;-140.72;0.00
38197;BME280;26543;51.976;4.616;2023-04-04T10:06:15;52595.81;;;-140.72;0.00
38197;BME280;26543;51.976;4.616;2023-04-04T10:08:40;52520.72;;;-140.72;0.00
38197;BME280;26543;51.976;4.616;2023-04-04T10:11:07;52516.66;;;-140.72;0.00
38197;BME280;26543;51.976;4.616;2023-04-04T10:13:33;52459.84;;;-140.72;0.00
38197;BME280;26543;51.976;4.616;2023-04-04T10:16:00;52494.34;;;-140.72;0.00
38197;BME280;26543;51.976;4.616;2023-04-04T10:20:55;52478.13;;;-140.72;0.00
38197;BME280;26543;51.976;4.616;2023-04-04T10:23:21;52490.28;;;-140.72;0.00
38197;BME280;26543;51.976;4.616;2023-04-04T10:25:47;52480.16;;;-140.72;0.00
38197;BME280;26543;51.976;4.616;2023-04-04T10:28:13;52439.56;;;-140.72;0.00
38197;BME280;26543;51.976;4.616;2023-04-04T10:30:39;52476.09;;;-140.72;0.00
38197;BME280;26543;51.976;4.616;2023-04-04T10:33:06;52453.75;;;-140.72;0.00
38197;BME280;26543;51.976;4.616;2023-04-04T10:35:31;52437.53;;;-140.72;0.00
38197;BME280;26543;51.976;4.616;2023-04-04T10:37:59;52401.00;;;-140.72;0.00
38197;BME280;26543;51.976;4.616;2023-04-04T10:40:27;52427.38;;;-140.72;0.00
38197;BME280;26543;51.976;4.616;2023-04-04T10:42:56;52384.78;;;-140.72;0.00
38197;BME280;26543;51.976;4.616;2023-04-04T10:45:22;52388.84;;;-140.72;0.00
38197;BME280;26543;51.976;4.616;2023-04-04T10:47:48;52390.84;;;-140.72;0.00
38197;BME280;26543;51.976;4.616;2023-04-04T10:50:13;52378.69;;;-140.72;0.00
38197;BME280;26543;51.976;4.616;2023-04-04T10:52:40;52370.56;;;-140.72;0.00
38197;BME280;26543;51.976;4.616;2023-04-04T10:55:07;52334.03;;;-140.72;0.00
38197;BME280;26543;51.976;4.616;2023-04-04T10:57:33;52265.06;;;-140.72;0.00
38197;BME280;26543;51.976;4.616;2023-04-04T11:00:05;52301.59;;;-140.72;0.00
38197;BME280;26543;51.976;4.616;2023-04-04T11:07:45;52273.19;;;-140.72;0.00
38197;BME280;26543;51.976;4.616;2023-04-04T11:10:14;52269.13;;;-140.72;0.00
38197;BME280;26543;51.976;4.616;2023-04-04T11:12:43;52271.16;;;-140.72;0.00
38197;BME280;26543;51.976;4.616;2023-04-04T11:15:10;52224.47;;;-140.72;0.00
38197;BME280;26543;51.976;4.616;2023-04-04T11:20:31;52208.25;;;-140.72;0.00
38197;BME280;26543;51.976;4.616;2023-04-04T11:23:00;52183.91;;;-140.72;0.00
38197;BME280;26543;51.976;4.616;2023-04-04T11:25:28;52216.34;;;-140.72;0.00
38197;BME280;26543;51.976;4.616;2023-04-04T11:27:57;52212.31;;;-140.72;0.00
38197;BME280;26543;51.976;4.616;2023-04-04T11:30:23;52224.47;;;-140.72;0.00
38197;BME280;26543;51.976;4.616;2023-04-04T11:32:49;52161.56;;;-140.72;0.00
38197;BME280;26543;51.976;4.616;2023-04-04T11:35:14;52127.09;;;-140.72;0.00
38197;BME280;26543;51.976;4.616;2023-04-04T11:37:43;52177.81;;;-140.72;0.00
38197;BME280;26543;51.976;4.616;2023-04-04T11:40:39;52269.13;;;-140.72;0.00
38197;BME280;26543;51.976;4.616;2023-04-04T11:43:09;52196.06;;;-140.72;0.00
38197;BME280;26543;51.976;4.616;2023-04-04T11:45:35;52177.81;;;-140.72;0.00
38197;BME280;26543;51.976;4.616;2023-04-04T11:48:02;52155.50;;;-140.72;0.00
38197;BME280;26543;51.976;4.616;2023-04-04T11:50:33;52121.00;;;-140.72;0.00
38197;BME280;26543;51.976;4.616;2023-04-04T11:52:58;52171.72;;;-140.72;0.00
38197;BME280;26543;51.976;4.616;2023-04-04T11:55:23;52153.47;;;-140.72;0.00
38197;BME280;26543;51.976;4.616;2023-04-04T11:57:50;52137.22;;;-140.72;0.00
38197;BME280;26543;51.976;4.616;2023-04-04T12:03:14;52127.09;;;-140.72;0.00
38197;BME280;26543;51.976;4.616;2023-04-04T12:05:41;52206.22;;;-140.72;0.00
38197;BME280;26543;51.976;4.616;2023-04-04T12:08:07;52135.19;;;-140.72;0.00
38197;BME280;26543;51.976;4.616;2023-04-04T12:10:33;52082.44;;;-140.72;0.00
38197;BME280;26543;51.976;4.616;2023-04-04T12:12:59;52066.22;;;-140.72;0.00
38197;BME280;26543;51.976;4.616;2023-04-04T12:15:26;52072.31;;;-140.72;0.00
38197;BME280;26543;51.976;4.616;2023-04-04T12:17:52;52009.41;;;-140.72;0.00
38197;BME280;26543;51.976;4.616;2023-04-04T12:20:20;51981.00;;;-140.72;0.00
38197;BME280;26543;51.976;4.616;2023-04-04T12:22:47;52074.34;;;-140.72;0.00
38197;BME280;26543;51.976;4.616;2023-04-04T12:25:13;52056.06;;;-140.72;0.00
38197;BME280;26543;51.976;4.616;2023-04-04T12:27:38;52080.41;;;-140.72;0.00
38197;BME280;26543;51.976;4.616;2023-04-04T12:30:04;52060.13;;;-140.72;0.00
38197;BME280;26543;51.976;4.616;2023-04-04T12:32:34;52086.50;;;-140.72;0.00
38197;BME280;26543;51.976;4.616;2023-04-04T12:35:00;52031.72;;;-140.72;0.00
38197;BME280;26543;51.976;4.616;2023-04-04T12:37:29;52001.28;;;-140.72;0.00
38197;BME280;26543;51.976;4.616;2023-04-04T12:39:54;51995.19;;;-140.72;0.00
38197;BME280;26543;51.976;4.616;2023-04-04T12:42:20;52023.59;;;-140.72;0.00
38197;BME280;26543;51.976;4.616;2023-04-04T12:44:48;51972.88;;;-140.72;0.00
38197;BME280;26543;51.976;4.616;2023-04-04T12:47:13;52129.13;;;-140.72;0.00
38197;BME280;26543;51.976;4.616;2023-04-04T12:52:05;52033.75;;;-140.72;0.00
38197;BME280;26543;51.976;4.616;2023-04-04T12:54:32;52007.38;;;-140.72;0.00
38197;BME280;26543;51.976;4.616;2023-04-04T12:56:58;52033.75;;;-140.72;0.00